Time;durP1;ratioP1;P1;durP2;ratioP2;P2;SDS_P1;SDS_P2;PMS_P1;PMS_P2;Temp;Humidity;BMP_temperature;BMP_pressure;BME280_temperature;BME280_humidity;BME280_pressure;Samples;Min_cycle;Max_cycle;Signal;HPM_P1;HPM_P2
2022/01/12 00:05:24;;;;;;;12.10;6.28;;;;;;;2.63;71.07;102352.44;20940026;28;20049;-68
2022/01/12 00:15:26;;;;;;;10.43;5.93;;;;;;;2.51;71.98;102357.94;20939108;28;20049;-67
2022/01/12 00:25:29;;;;;;;11.40;6.40;;;;;;;2.50;71.70;102340.66;20944402;28;20048;-67
2022/01/12 00:35:31;;;;;;;14.00;7.07;;;;;;;2.48;72.24;102344.84;20953733;28;20048;-66
2022/01/12 00:45:34;;;;;;;14.32;7.38;;;;;;;2.23;74.25;102341.88;20952638;28;20091;-67
2022/01/12 00:55:37;;;;;;;13.48;7.40;;;;;;;1.90;76.14;102346.25;20953368;28;20057;-67
2022/01/12 01:05:39;;;;;;;13.82;7.15;;;;;;;1.69;76.94;102346.94;20951848;28;20049;-67
2022/01/12 01:25:49;;;;;;;15.00;7.95;;;;;;;1.42;77.73;102364.44;20949636;28;20048;-68
2022/01/12 01:35:55;;;;;;;16.80;8.18;;;;;;;1.20;80.00;102385.66;20949021;28;20053;-68
2022/01/12 01:56:19;;;;;;;16.33;8.43;;;;;;;0.80;84.26;102369.66;20947625;28;20126;-68
2022/01/12 02:06:20;;;;;;;16.48;8.00;;;;;;;0.71;83.52;102359.72;20946509;28;20099;-68
2022/01/12 02:16:30;;;;;;;16.50;7.88;;;;;;;0.67;83.06;102375.84;20945682;28;20049;-67
2022/01/12 02:37:12;;;;;;;14.95;7.30;;;;;;;0.17;87.46;102386.72;20944722;28;20499;-67
2022/01/12 02:57:34;;;;;;;20.52;11.10;;;;;;;-0.13;89.22;102410.66;20943839;28;20071;-68
2022/01/12 03:07:38;;;;;;;19.90;9.75;;;;;;;-0.33;91.77;102392.34;20942647;28;20098;-68
2022/01/12 03:17:40;;;;;;;15.70;8.23;;;;;;;-0.47;92.16;102392.31;20942268;28;20063;-67
2022/01/12 03:27:41;;;;;;;13.50;7.60;;;;;;;-0.56;92.56;102392.63;20940742;28;20063;-68
2022/01/12 03:37:54;;;;;;;16.63;8.15;;;;;;;-0.68;93.38;102391.84;20938712;28;20567;-68
2022/01/12 03:47:56;;;;;;;16.88;8.43;;;;;;;-0.74;94.16;102391.50;20940666;28;20149;-67
2022/01/12 03:57:57;;;;;;;21.35;10.38;;;;;;;-0.84;94.57;102396.06;20941881;28;20285;-67
2022/01/12 04:18:19;;;;;;;28.27;11.98;;;;;;;-0.94;94.48;102404.00;20955816;28;20057;-67
2022/01/12 04:28:21;;;;;;;24.75;12.80;;;;;;;-1.00;94.71;102429.31;20954930;28;20102;-67
2022/01/12 04:38:25;;;;;;;44.28;19.42;;;;;;;-1.19;95.91;102458.09;20953777;28;20048;-67
2022/01/12 04:58:31;;;;;;;24.48;10.90;;;;;;;-0.99;94.52;102476.50;20952723;28;20045;-67
2022/01/12 05:18:34;;;;;;;20.60;9.30;;;;;;;-1.13;95.32;102473.91;20950360;28;20078;-67
2022/01/12 05:28:38;;;;;;;25.70;12.57;;;;;;;-1.18;95.90;102494.97;20950997;28;20401;-67
2022/01/12 05:38:39;;;;;;;18.90;9.30;;;;;;;-1.24;96.23;102497.16;20948433;28;20041;-67
2022/01/12 05:59:03;;;;;;;17.17;8.70;;;;;;;-1.32;97.67;102482.09;20947627;28;20559;-66
2022/01/12 06:09:05;;;;;;;19.45;9.30;;;;;;;-1.43;98.32;102488.22;20946588;28;20143;-67
2022/01/12 06:19:06;;;;;;;25.55;12.50;;;;;;;-1.42;97.95;102486.53;20945364;28;20045;-67
2022/01/12 06:39:17;;;;;;;22.48;10.30;;;;;;;-1.52;99.18;102467.06;20944324;28;20091;-67
2022/01/12 06:49:18;;;;;;;20.40;10.20;;;;;;;-1.53;99.28;102482.34;20943725;28;20102;-67
2022/01/12 06:59:20;;;;;;;28.50;14.75;;;;;;;-1.55;98.79;102524.25;20942373;28;20562;-68
2022/01/12 07:09:21;;;;;;;21.77;11.05;;;;;;;-1.71;100.00;102543.66;20942262;28;20102;-67
2022/01/12 07:19:23;;;;;;;35.92;15.35;;;;;;;-1.67;100.00;102558.50;20940758;28;20048;-68
2022/01/12 07:29:24;;;;;;;23.40;11.18;;;;;;;-1.62;100.00;102593.09;20940443;28;20120;-67
2022/01/12 07:39:26;;;;;;;27.20;14.10;;;;;;;-1.22;98.04;102575.22;20939698;28;20457;-68
2022/01/12 07:49:27;;;;;;;26.10;14.27;;;;;;;-1.06;97.02;102570.31;20960967;28;20102;-68
2022/01/12 07:59:29;;;;;;;24.15;11.98;;;;;;;-0.80;97.59;102575.50;20956790;28;20520;-68
2022/01/12 08:09:30;;;;;;;24.33;12.00;;;;;;;-0.72;96.26;102595.66;20935963;28;20497;-67
2022/01/12 08:19:36;;;;;;;30.63;14.88;;;;;;;-0.63;97.12;102630.59;20933193;28;20524;-67
2022/01/12 08:29:37;;;;;;;26.65;13.20;;;;;;;-0.56;96.15;102624.19;20938664;28;20433;-68
2022/01/12 08:39:39;;;;;;;27.77;13.57;;;;;;;-0.47;95.88;102642.81;20933220;28;20052;-68
2022/01/12 08:49:41;;;;;;;30.48;14.40;;;;;;;-0.36;95.17;102654.66;20939349;28;20055;-70
2022/01/12 08:59:44;;;;;;;27.27;13.45;;;;;;;-0.09;93.14;102647.84;20948353;28;20098;-71
2022/01/12 09:09:46;;;;;;;23.83;13.13;;;;;;;0.22;89.84;102684.13;20943081;28;20045;-68
2022/01/12 09:19:49;;;;;;;26.15;14.52;;;;;;;0.49;88.17;102673.78;20945260;28;20052;-71
2022/01/12 09:29:51;;;;;;;23.45;13.10;;;;;;;0.79;87.47;102689.31;20941948;28;20098;-70
2022/01/12 09:39:52;;;;;;;23.13;13.70;;;;;;;0.94;85.33;102691.13;20945182;28;20055;-70
2022/01/12 09:49:54;;;;;;;23.92;12.27;;;;;;;1.21;81.78;102712.53;20946309;28;20048;-71
2022/01/12 09:59:55;;;;;;;21.42;12.45;;;;;;;1.55;82.98;102711.94;20938502;28;20350;-70
2022/01/12 10:10:06;;;;;;;20.45;12.50;;;;;;;1.62;79.83;102714.06;20938848;28;20432;-70
2022/01/12 10:20:12;;;;;;;23.60;12.07;;;;;;;1.69;78.76;102723.94;20941754;28;20064;-70
2022/01/12 10:30:25;;;;;;;25.50;13.35;;;;;;;1.75;81.99;102719.13;20937520;28;20049;-70
2022/01/12 10:40:27;;;;;;;26.65;13.55;;;;;;;1.77;79.05;102702.03;20935518;28;20126;-70
2022/01/12 10:50:29;;;;;;;23.92;12.45;;;;;;;2.08;79.04;102697.69;20949772;28;20504;-70
2022/01/12 11:00:30;;;;;;;21.42;11.73;;;;;;;2.29;74.54;102704.94;20934474;28;20052;-70
2022/01/12 11:10:32;;;;;;;17.92;10.20;;;;;;;2.29;74.35;102670.44;20934983;28;20075;-70
2022/01/12 11:20:34;;;;;;;17.10;8.52;;;;;;;2.57;72.51;102662.47;20933368;28;20418;-70
2022/01/12 11:30:40;;;;;;;15.60;8.80;;;;;;;2.65;72.20;102653.44;20932144;28;20041;-70
2022/01/12 11:40:42;;;;;;;13.93;7.75;;;;;;;2.80;68.27;102653.34;20932519;28;20052;-70
2022/01/12 11:50:53;;;;;;;12.82;7.82;;;;;;;2.88;68.32;102635.66;20930378;28;20040;-70
2022/01/12 12:00:54;;;;;;;15.95;8.93;;;;;;;3.02;68.14;102642.41;20930509;28;20152;-70
2022/01/12 12:10:56;;;;;;;14.27;7.95;;;;;;;3.14;66.85;102650.78;20930899;28;20045;-69
2022/01/12 12:20:57;;;;;;;16.25;8.90;;;;;;;3.18;67.36;102642.38;20939354;28;20049;-69
2022/01/12 12:31:00;;;;;;;15.77;8.90;;;;;;;3.08;67.24;102632.38;20866249;28;20525;-69
2022/01/12 12:41:02;;;;;;;16.90;9.27;;;;;;;3.02;68.90;102624.31;20945127;28;20126;-70
2022/01/12 12:51:11;;;;;;;17.77;9.40;;;;;;;3.07;67.37;102643.53;20944759;28;20552;-70
2022/01/12 13:01:15;;;;;;;18.58;10.05;;;;;;;3.14;67.93;102647.31;20944424;28;20053;-70
2022/01/12 13:11:16;;;;;;;17.80;10.77;;;;;;;3.13;69.39;102650.72;20946004;28;20049;-70
2022/01/12 13:21:18;;;;;;;15.00;8.43;;;;;;;3.20;68.32;102640.72;20942109;28;20122;-70
2022/01/12 13:31:21;;;;;;;13.60;8.77;;;;;;;3.21;68.38;102639.94;20941513;28;20045;-69
2022/01/12 13:41:27;;;;;;;16.97;8.97;;;;;;;3.18;68.00;102646.66;20941285;28;20064;-69
2022/01/12 13:51:29;;;;;;;15.85;9.07;;;;;;;3.30;68.62;102635.19;20940937;28;20049;-69
2022/01/12 14:01:33;;;;;;;17.90;9.88;;;;;;;3.35;70.62;102640.59;20938579;28;20049;-69
2022/01/12 14:11:37;;;;;;;18.90;10.63;;;;;;;3.43;67.97;102659.13;20939428;28;20079;-70
2022/01/12 14:21:41;;;;;;;15.43;10.13;;;;;;;3.63;68.46;102653.22;20937647;28;20481;-70
2022/01/12 14:31:43;;;;;;;16.98;8.98;;;;;;;3.55;68.01;102644.19;20851755;28;77014;-69
2022/01/12 14:41:44;;;;;;;15.65;9.13;;;;;;;3.23;68.88;102656.44;20853604;28;20073;-69
2022/01/12 14:51:46;;;;;;;14.30;8.40;;;;;;;3.04;70.08;102654.59;20853742;28;20053;-70
2022/01/12 15:02:07;;;;;;;18.08;10.20;;;;;;;2.80;71.88;102651.66;20849252;28;20143;-70
2022/01/12 15:12:14;;;;;;;23.05;9.73;;;;;;;2.60;73.26;102649.72;20853145;28;20053;-69
2022/01/12 15:22:15;;;;;;;19.00;11.48;;;;;;;2.51;74.00;102654.41;20850806;28;20486;-69
2022/01/12 15:32:17;;;;;;;28.08;13.32;;;;;;;2.47;73.13;102666.25;20850904;28;20084;-70
2022/01/12 15:42:19;;;;;;;29.40;14.95;;;;;;;2.28;75.23;102666.09;20849663;28;20057;-70
2022/01/12 15:52:21;;;;;;;29.40;16.02;;;;;;;2.04;77.37;102670.78;20848003;28;20053;-70
2022/01/12 16:02:23;;;;;;;24.08;13.95;;;;;;;1.61;81.32;102662.34;20846997;28;20053;-69
2022/01/12 16:12:24;;;;;;;23.90;12.82;;;;;;;1.33;82.81;102660.75;20850710;28;20139;-69
2022/01/12 16:22:46;;;;;;;35.95;18.55;;;;;;;1.05;85.81;102689.19;20847852;28;20325;-70
2022/01/12 16:32:47;;;;;;;49.30;25.67;;;;;;;0.80;87.10;102686.81;20847383;28;20111;-69
2022/01/12 16:42:49;;;;;;;31.90;15.48;;;;;;;0.48;89.79;102702.94;20847538;28;20049;-69
2022/01/12 16:52:51;;;;;;;34.17;14.82;;;;;;;0.31;88.13;102725.03;20847456;28;20430;-69
2022/01/12 17:02:52;;;;;;;21.92;11.98;;;;;;;-0.05;91.75;102716.78;20849490;28;20306;-69
2022/01/12 17:12:55;;;;;;;18.45;10.30;;;;;;;-0.14;91.94;102728.16;20861182;28;20049;-69
2022/01/12 17:23:17;;;;;;;24.52;12.77;;;;;;;-0.31;91.68;102730.50;20860699;28;20069;-69
2022/01/12 17:33:20;;;;;;;24.92;14.60;;;;;;;-0.52;93.38;102735.13;20858317;28;20052;-69
2022/01/12 17:43:25;;;;;;;20.95;11.52;;;;;;;-0.43;92.49;102740.00;20856580;28;20099;-70
2022/01/12 17:53:27;;;;;;;27.00;17.50;;;;;;;-0.72;94.43;102750.00;20852811;28;20483;-70
2022/01/12 18:09:27;;;;;;;30.63;15.75;;;;;;;-0.91;95.78;102761.63;20813070;28;81079;-68
2022/01/12 18:19:40;;;;;;;53.38;28.83;;;;;;;-1.01;96.70;102766.91;20794594;28;20458;-68
2022/01/12 18:29:44;;;;;;;30.55;15.77;;;;;;;-1.03;96.93;102773.63;20793175;28;20479;-67
2022/01/12 18:39:52;;;;;;;36.92;18.00;;;;;;;-1.09;97.65;102768.97;20793559;28;20046;-67
2022/01/12 18:49:53;;;;;;;32.65;16.67;;;;;;;-1.17;97.82;102771.78;20762625;28;20434;-67
2022/01/12 18:59:55;;;;;;;31.98;17.27;;;;;;;-1.29;98.89;102771.81;20785350;28;20482;-68
2022/01/12 19:09:56;;;;;;;33.00;17.17;;;;;;;-1.35;98.89;102771.38;20783106;28;20041;-67
2022/01/12 19:20:00;;;;;;;33.60;18.27;;;;;;;-1.39;99.11;102771.94;20736688;28;20046;-68
2022/01/12 19:30:04;;;;;;;40.95;21.27;;;;;;;-1.48;99.61;102772.19;20730693;28;20108;-69
2022/01/12 19:40:07;;;;;;;60.17;30.33;;;;;;;-1.53;99.75;102762.34;20730395;28;20042;-68
2022/01/12 19:50:09;;;;;;;36.75;19.45;;;;;;;-1.55;99.83;102800.78;20729050;28;20498;-67
2022/01/12 20:00:17;;;;;;;76.22;36.17;;;;;;;-1.52;99.04;102820.69;20727419;28;20050;-68
2022/01/12 20:10:18;;;;;;;74.05;37.40;;;;;;;-1.40;99.79;102829.25;20724944;28;20054;-67
2022/01/12 20:30:45;;;;;;;47.17;25.52;;;;;;;-1.14;99.84;102841.41;20723178;28;20052;-67
2022/01/12 20:40:47;;;;;;;49.95;27.98;;;;;;;-1.12;100.00;102850.09;20730251;28;20061;-67
2022/01/12 20:50:48;;;;;;;47.75;24.88;;;;;;;-0.87;99.51;102852.72;20725233;28;20112;-68
2022/01/12 21:00:50;;;;;;;84.00;36.17;;;;;;;-0.71;99.14;102839.28;20723772;28;20046;-67
2022/01/12 21:11:11;;;;;;;95.30;39.03;;;;;;;-0.58;98.79;102841.88;20723892;28;20516;-68
2022/01/12 21:21:13;;;;;;;63.47;30.67;;;;;;;-0.60;97.76;102843.47;20723182;28;20128;-68
2022/01/12 21:31:14;;;;;;;132.05;55.05;;;;;;;-0.70;98.79;102856.50;20721774;28;20053;-68
2022/01/12 21:41:21;;;;;;;86.28;38.95;;;;;;;-0.74;98.91;102864.78;20721855;28;20049;-68
2022/01/12 21:51:23;;;;;;;68.47;34.03;;;;;;;-0.98;100.00;102877.69;20721653;28;20096;-68
2022/01/12 22:01:25;;;;;;;60.20;31.73;;;;;;;-0.96;100.00;102883.81;20720598;28;20050;-68
2022/01/12 22:11:27;;;;;;;47.40;23.33;;;;;;;-0.96;99.80;102872.66;20718974;28;20038;-68
2022/01/12 22:21:29;;;;;;;38.42;21.23;;;;;;;-1.02;100.00;102852.53;20718826;28;20499;-68
2022/01/12 22:31:30;;;;;;;43.22;22.98;;;;;;;-1.05;100.00;102862.63;20720721;28;20554;-66
2022/01/12 22:41:33;;;;;;;38.53;21.17;;;;;;;-1.14;100.00;102846.56;20719921;28;20056;-68
2022/01/12 22:51:34;;;;;;;41.45;22.88;;;;;;;-1.12;100.00;102840.72;20723553;28;20033;-66
2022/01/12 23:01:36;;;;;;;40.70;20.98;;;;;;;-1.20;100.00;102829.00;20732853;28;20046;-67
2022/01/12 23:11:38;;;;;;;54.70;26.83;;;;;;;-1.20;100.00;102820.38;20737895;28;20132;-67
2022/01/12 23:21:39;;;;;;;41.65;21.45;;;;;;;-1.44;100.00;102825.56;20735383;28;20057;-67
2022/01/12 23:31:42;;;;;;;45.22;23.95;;;;;;;-1.74;100.00;102841.34;20734383;28;20065;-67
2022/01/12 23:52:34;;;;;;;55.38;28.77;;;;;;;-1.56;100.00;102866.69;20740774;28;20129;-66
